createdAt,value
2019-06-10T00:02:10.766Z,63.05
2019-06-10T00:04:42.344Z,63.68
2019-06-10T00:07:12.137Z,63.93
2019-06-10T00:09:42.603Z,63.93
2019-06-10T00:12:12.890Z,64.07
2019-06-10T00:14:43.085Z,64.22
2019-06-10T00:17:14.782Z,64.22
2019-06-10T00:19:44.991Z,64.04
2019-06-10T00:22:14.805Z,63.99
2019-06-10T00:25:05.801Z,64.57
2019-06-10T00:27:36.376Z,64.76
2019-06-10T00:30:08.133Z,64.76
2019-06-10T00:32:41.043Z,64.79
2019-06-10T00:35:12.342Z,65.02
2019-06-10T00:37:42.438Z,65.26
2019-06-10T00:40:14.221Z,65.82
2019-06-10T00:42:44.361Z,64.70
2019-06-10T00:45:17.993Z,65.15
2019-06-10T00:47:47.920Z,65.15
2019-06-10T00:50:18.203Z,65.32
2019-06-10T00:52:48.215Z,65.13
2019-06-10T00:55:18.215Z,64.97
2019-06-10T00:57:50.997Z,64.97
2019-06-10T01:00:25.504Z,65.40
2019-06-10T01:02:52.563Z,65.47
2019-06-10T01:05:22.619Z,65.61
2019-06-10T01:07:52.573Z,65.61
2019-06-10T01:10:22.800Z,65.86
2019-06-10T01:12:53.312Z,65.92
2019-06-10T01:15:23.188Z,65.87
2019-06-10T01:17:53.443Z,66.12
2019-06-10T01:20:23.284Z,66.12
2019-06-10T01:22:55.621Z,66.18
2019-06-10T01:25:25.708Z,66.18
2019-06-10T01:27:55.650Z,66.04
2019-06-10T01:30:27.266Z,66.73
2019-06-10T01:32:57.265Z,66.73
2019-06-10T01:35:27.451Z,66.32
2019-06-10T01:37:57.325Z,66.69
2019-06-10T01:40:27.148Z,67.50
2019-06-10T01:42:57.494Z,66.96
2019-06-10T01:45:27.623Z,67.52
2019-06-10T01:47:57.454Z,67.43
2019-06-10T01:50:27.853Z,67.43
2019-06-10T01:52:57.765Z,67.55
2019-06-10T01:55:31.024Z,67.96
2019-06-10T01:58:00.960Z,67.46
2019-06-10T02:00:38.960Z,68.08
2019-06-10T02:03:11.607Z,67.54
2019-06-10T02:05:41.908Z,68.13
2019-06-10T02:08:14.531Z,68.13
2019-06-10T02:10:43.689Z,67.88
2019-06-10T02:13:32.435Z,68.36
2019-06-10T02:16:02.386Z,68.51
2019-06-10T02:18:32.410Z,68.51
2019-06-10T02:21:02.412Z,68.79
2019-06-10T02:23:32.265Z,69.09
2019-06-10T02:26:02.190Z,68.83
2019-06-10T02:28:32.527Z,68.83
2019-06-10T02:31:03.696Z,68.28
2019-06-10T02:33:36.448Z,68.28
2019-06-10T02:36:05.616Z,68.71
2019-06-10T02:38:39.597Z,68.71
2019-06-10T02:41:07.606Z,68.53
2019-06-10T02:43:39.030Z,68.90
2019-06-10T02:46:08.981Z,68.65
2019-06-10T02:48:39.544Z,68.55
2019-06-10T02:51:13.099Z,68.24
2019-06-10T02:53:43.584Z,68.24
2019-06-10T02:56:14.782Z,69.00
2019-06-10T02:58:45.332Z,69.13
2019-06-10T03:01:17.393Z,69.27
2019-06-10T03:03:49.675Z,68.82
2019-06-10T03:06:21.338Z,68.95
2019-06-10T03:08:54.602Z,68.95
2019-06-10T03:11:29.650Z,68.28
2019-06-10T03:13:53.977Z,68.21
2019-06-10T03:16:32.962Z,68.39
2019-06-10T03:19:03.135Z,68.58
2019-06-10T03:21:33.013Z,68.58
2019-06-10T03:24:04.040Z,67.72
2019-06-10T03:26:34.471Z,67.72
2019-06-10T03:29:04.383Z,67.50
2019-06-10T03:31:41.444Z,67.52
2019-06-10T03:34:08.502Z,67.24
2019-06-10T03:36:38.633Z,67.24
2019-06-10T03:39:09.586Z,66.91
2019-06-10T03:41:39.634Z,66.58
2019-06-10T03:44:09.698Z,66.58
2019-06-10T03:46:40.243Z,65.91
2019-06-10T03:49:12.561Z,66.09
2019-06-10T03:51:42.910Z,66.27
2019-06-10T03:54:13.217Z,65.89
2019-06-10T03:56:43.434Z,65.89
2019-06-10T03:59:13.762Z,66.21
2019-06-10T04:01:43.662Z,66.42
2019-06-10T04:04:13.546Z,66.40
2019-06-10T04:06:44.360Z,67.73
2019-06-10T04:09:14.519Z,66.78
2019-06-10T04:11:44.504Z,66.04
2019-06-10T04:14:14.409Z,66.48
2019-06-10T04:16:44.323Z,65.39
2019-06-10T04:19:14.289Z,65.39
2019-06-10T04:21:44.210Z,65.77
2019-06-10T04:24:14.629Z,66.18
2019-06-10T04:26:44.489Z,67.28
2019-06-10T04:29:14.539Z,66.10
2019-06-10T04:31:44.489Z,66.46
2019-06-10T04:34:14.378Z,66.46
2019-06-10T04:36:44.314Z,66.18
2019-06-10T04:39:14.425Z,65.27
2019-06-10T04:41:44.547Z,65.36
2019-06-10T04:44:14.973Z,64.63
2019-06-10T04:46:45.249Z,64.63
2019-06-10T04:49:15.942Z,64.27
2019-06-10T04:51:45.928Z,64.97
2019-06-10T04:54:15.977Z,64.97
2019-06-10T04:56:46.411Z,63.98
2019-06-10T04:59:16.288Z,65.01
2019-06-10T05:01:46.080Z,65.01
2019-06-10T05:04:16.430Z,64.85
2019-06-10T05:06:46.581Z,64.20
2019-06-10T05:09:16.495Z,64.46
2019-06-10T05:11:46.873Z,64.75
2019-06-10T05:14:17.054Z,64.75
2019-06-10T05:16:47.038Z,64.30
2019-06-10T05:19:17.183Z,64.28
2019-06-10T05:21:47.152Z,63.51
2019-06-10T05:24:17.122Z,63.51
2019-06-10T05:26:47.295Z,64.47
2019-06-10T05:29:17.498Z,64.90
2019-06-10T05:31:47.554Z,64.90
2019-06-10T05:34:18.094Z,64.07
2019-06-10T05:36:48.075Z,64.18
2019-06-10T05:39:18.108Z,64.18
2019-06-10T05:41:50.246Z,64.05
2019-06-10T05:44:19.794Z,64.08
2019-06-10T05:46:52.646Z,64.04
2019-06-10T05:49:24.150Z,64.04
2019-06-10T05:51:53.609Z,64.00
2019-06-10T05:54:26.398Z,63.19
2019-06-10T05:56:57.547Z,63.96
2019-06-10T05:59:27.807Z,63.96
2019-06-10T06:01:57.727Z,63.97
2019-06-10T06:04:32.572Z,64.03
2019-06-10T06:07:02.361Z,64.62
2019-06-10T06:09:33.873Z,64.62
2019-06-10T06:12:03.728Z,64.99
2019-06-10T06:14:34.697Z,65.07
2019-06-10T06:17:05.098Z,65.36
2019-06-10T06:19:37.379Z,66.08
2019-06-10T06:22:06.665Z,66.08
2019-06-10T06:24:37.877Z,65.86
2019-06-10T06:27:07.949Z,65.86
2019-06-10T06:29:42.957Z,65.90
2019-06-10T06:32:13.286Z,66.29
2019-06-10T06:34:43.288Z,66.29
2019-06-10T06:37:13.233Z,66.26
2019-06-10T06:39:43.537Z,66.33
2019-06-10T06:42:14.719Z,65.84
2019-06-10T06:44:44.574Z,66.50
2019-06-10T06:47:14.937Z,66.56
2019-06-10T06:49:44.939Z,66.56
2019-06-10T06:52:14.969Z,66.99
2019-06-10T06:54:45.333Z,67.03
2019-06-10T06:57:15.167Z,67.03
2019-06-10T06:59:45.459Z,66.95
2019-06-10T07:02:15.690Z,66.31
2019-06-10T07:04:45.699Z,66.31
2019-06-10T07:07:16.462Z,65.54
2019-06-10T07:09:46.867Z,65.54
2019-06-10T07:12:16.737Z,64.87
2019-06-10T07:14:46.594Z,65.13
2019-06-10T07:17:18.094Z,65.26
2019-06-10T07:19:48.142Z,65.26
2019-06-10T07:22:23.381Z,64.93
2019-06-10T07:24:53.290Z,63.92
2019-06-10T07:27:23.219Z,64.16
2019-06-10T07:29:53.356Z,64.49
2019-06-10T07:32:23.577Z,64.49
2019-06-10T07:34:53.637Z,64.33
2019-06-10T07:37:24.334Z,64.24
2019-06-10T07:39:54.386Z,64.45
2019-06-10T07:42:24.268Z,64.78
2019-06-10T07:44:54.490Z,64.02
2019-06-10T07:47:24.344Z,64.02
2019-06-10T07:49:55.113Z,64.03
2019-06-10T07:52:24.867Z,64.29
2019-06-10T07:54:54.844Z,63.50
2019-06-10T07:57:24.826Z,62.76
2019-06-10T07:59:56.461Z,62.76
2019-06-10T08:02:27.165Z,61.88
2019-06-10T08:04:57.563Z,61.13
2019-06-10T08:07:27.423Z,61.07
2019-06-10T08:09:58.651Z,61.07
2019-06-10T08:12:28.685Z,61.94
2019-06-10T08:14:58.981Z,62.34
2019-06-10T08:17:32.826Z,62.34
2019-06-10T08:20:03.070Z,61.88
2019-06-10T08:22:37.892Z,61.88
2019-06-10T08:25:04.983Z,61.45
2019-06-10T08:27:36.465Z,61.24
2019-06-10T08:30:18.571Z,60.04
2019-06-10T08:32:45.102Z,60.04
2019-06-10T08:35:13.614Z,60.19
2019-06-10T08:37:45.960Z,58.45
2019-06-10T08:40:15.570Z,58.86
2019-06-10T08:42:48.897Z,58.86
2019-06-10T08:45:19.262Z,58.91
2019-06-10T08:55:23.873Z,58.26
2019-06-10T08:57:51.556Z,58.26
2019-06-10T09:00:25.380Z,59.47
2019-06-10T09:02:53.965Z,59.47
2019-06-10T09:05:26.287Z,57.81
2019-06-10T09:07:56.967Z,57.81
2019-06-10T09:10:27.321Z,58.50
2019-06-10T09:12:57.763Z,58.75
2019-06-10T09:15:27.594Z,57.50
2019-06-10T09:17:57.393Z,57.92
2019-06-10T09:20:27.939Z,56.27
2019-06-10T09:23:16.920Z,57.42
2019-06-10T09:25:29.522Z,55.96
2019-06-10T09:28:04.798Z,57.48
2019-06-10T09:30:34.587Z,57.48
2019-06-10T09:33:04.922Z,55.65
2019-06-10T09:35:35.298Z,56.40
2019-06-10T09:38:26.459Z,57.01
2019-06-10T09:41:01.655Z,56.40
2019-06-10T09:43:30.130Z,56.07
2019-06-10T09:46:00.024Z,54.89
2019-06-10T09:48:30.273Z,54.89
2019-06-10T09:51:02.265Z,54.21
2019-06-10T09:53:41.384Z,55.32
2019-06-10T09:56:04.277Z,55.94
2019-06-10T09:58:34.208Z,55.94
2019-06-10T10:01:04.793Z,55.58
2019-06-10T10:03:37.354Z,55.58
2019-06-10T10:06:14.715Z,55.21
2019-06-10T10:08:44.652Z,54.15
2019-06-10T10:11:14.080Z,54.77
2019-06-10T10:13:47.420Z,55.09
2019-06-10T10:16:16.992Z,55.09
2019-06-10T10:18:51.830Z,51.99
2019-06-10T10:21:19.012Z,51.99
2019-06-10T10:24:01.070Z,52.43
2019-06-10T10:26:21.232Z,53.37
2019-06-10T10:28:54.121Z,53.70
2019-06-10T10:31:23.827Z,53.70
2019-06-10T10:33:55.726Z,52.12
2019-06-10T10:36:26.287Z,53.32
2019-06-10T10:38:56.064Z,52.27
2019-06-10T10:41:26.701Z,52.27
2019-06-10T10:43:58.491Z,52.35
2019-06-10T10:46:28.093Z,51.69
2019-06-10T10:48:58.137Z,51.69
2019-06-10T10:51:32.524Z,50.62
2019-06-10T10:54:20.737Z,49.03
2019-06-10T10:56:34.474Z,50.67
2019-06-10T10:59:07.260Z,49.40
2019-06-10T11:01:38.524Z,49.40
2019-06-10T11:04:13.478Z,49.61
2019-06-10T11:06:46.202Z,49.61
2019-06-10T11:09:17.256Z,49.08
2019-06-10T11:11:48.846Z,49.05
2019-06-10T11:14:23.015Z,49.05
2019-06-10T11:16:56.593Z,47.85
2019-06-10T11:19:26.077Z,48.23
2019-06-10T11:21:56.029Z,48.23
2019-06-10T11:24:36.379Z,49.02
2019-06-10T11:26:58.474Z,49.02
2019-06-10T11:29:28.332Z,47.11
2019-06-10T11:31:58.909Z,47.62
2019-06-10T11:34:30.052Z,47.62
2019-06-10T11:37:02.319Z,46.96
2019-06-10T11:39:33.831Z,46.08
2019-06-10T11:42:03.958Z,46.73
2019-06-10T11:44:34.066Z,46.73
2019-06-10T11:47:04.855Z,46.43
2019-06-10T11:49:35.020Z,46.59
2019-06-10T11:52:05.369Z,47.33
2019-06-10T11:54:51.688Z,47.33
2019-06-10T11:57:09.729Z,45.26
2019-06-10T11:59:39.496Z,47.05
2019-06-10T12:02:09.973Z,47.05
2019-06-10T12:04:40.007Z,44.63
2019-06-10T12:07:10.153Z,46.95
2019-06-10T12:09:42.530Z,46.74
2019-06-10T12:12:13.541Z,46.74
2019-06-10T12:14:55.289Z,46.07
2019-06-10T12:17:41.561Z,46.57
2019-06-10T12:20:02.521Z,44.90
2019-06-10T12:22:29.193Z,44.90
2019-06-10T12:25:24.898Z,45.76
2019-06-10T12:27:33.930Z,45.30
2019-06-10T12:30:07.435Z,45.72
2019-06-10T12:32:37.966Z,45.72
2019-06-10T12:35:08.944Z,45.81
2019-06-10T12:37:52.035Z,44.23
2019-06-10T12:40:28.606Z,44.13
2019-06-10T12:43:05.031Z,44.13
2019-06-10T12:45:36.282Z,43.84
2019-06-10T12:48:06.997Z,44.19
2019-06-10T12:50:43.752Z,44.19
2019-06-10T12:53:16.245Z,42.98
2019-06-10T12:55:48.257Z,45.26
2019-06-10T12:58:24.474Z,45.26
2019-06-10T13:00:55.604Z,45.21
2019-06-10T13:03:27.486Z,45.21
2019-06-10T13:06:02.359Z,44.26
2019-06-10T13:08:33.149Z,45.37
2019-06-10T13:11:04.084Z,44.30
2019-06-10T13:13:34.201Z,45.58
2019-06-10T13:16:08.278Z,45.42
2019-06-10T13:18:36.565Z,46.10
2019-06-10T13:21:11.891Z,45.68
2019-06-10T13:23:38.303Z,45.26
2019-06-10T13:26:13.125Z,45.26
2019-06-10T13:28:43.103Z,46.07
2019-06-10T13:31:12.007Z,45.80
2019-06-10T13:33:42.907Z,46.65
2019-06-10T13:36:13.569Z,46.92
2019-06-10T13:38:43.850Z,46.92
2019-06-10T13:41:13.548Z,47.88
2019-06-10T13:47:15.409Z,45.04
2019-06-10T13:50:25.013Z,47.47
2019-06-10T13:52:54.277Z,47.47
2019-06-10T13:55:28.691Z,46.43
2019-06-10T13:58:46.386Z,45.91
2019-06-10T14:02:24.627Z,44.80
2019-06-10T14:05:09.111Z,45.88
2019-06-10T14:08:31.897Z,46.16
2019-06-10T14:11:33.877Z,46.16
2019-06-10T14:14:18.467Z,46.18
2019-06-10T14:17:52.590Z,45.13
2019-06-10T14:24:02.103Z,45.36
2019-06-10T14:26:42.086Z,45.36
2019-06-10T14:29:15.605Z,45.39
2019-06-10T14:32:23.288Z,43.55
2019-06-10T14:34:55.619Z,43.08
2019-06-10T14:38:39.087Z,43.08
2019-06-10T14:41:12.361Z,43.98
2019-06-10T14:43:45.768Z,43.64
2019-06-10T14:47:13.997Z,43.47
2019-06-10T14:49:42.492Z,43.60
2019-06-10T14:52:56.459Z,42.79
2019-06-10T14:55:43.193Z,43.68
2019-06-10T14:58:23.684Z,43.81
2019-06-10T15:01:17.794Z,43.56
2019-06-10T15:03:52.528Z,44.57
2019-06-10T15:06:44.245Z,44.57
2019-06-10T15:09:16.663Z,42.58
2019-06-10T15:12:02.842Z,44.14
2019-06-10T15:17:42.890Z,44.48
2019-06-10T15:20:16.034Z,44.69
2019-06-10T15:22:52.652Z,44.69
2019-06-10T15:25:53.878Z,45.38
2019-06-10T15:32:06.056Z,45.20
2019-06-10T15:35:04.400Z,45.20
2019-06-10T15:41:15.011Z,47.62
2019-06-10T15:43:56.079Z,47.62
2019-06-10T15:46:43.271Z,46.66
2019-06-10T15:49:26.134Z,47.85
2019-06-10T15:52:18.756Z,48.21
2019-06-10T15:55:37.847Z,48.33
2019-06-10T15:57:50.211Z,48.76
2019-06-10T16:00:53.113Z,48.76
2019-06-10T16:03:35.492Z,49.01
2019-06-10T16:06:24.568Z,50.20
2019-06-10T16:09:03.013Z,50.44
2019-06-10T16:12:03.952Z,51.10
2019-06-10T16:18:16.642Z,50.76
2019-06-10T16:21:03.957Z,50.76
2019-06-10T16:23:53.484Z,50.27
2019-06-10T16:26:31.628Z,51.73
2019-06-10T16:29:03.162Z,51.73
2019-06-10T16:32:16.290Z,51.91
2019-06-10T16:34:47.864Z,54.82
2019-06-10T16:37:36.378Z,54.82
2019-06-10T16:40:43.144Z,55.11
2019-06-10T16:43:17.737Z,56.85
2019-06-10T16:46:33.322Z,56.92
2019-06-10T16:49:58.600Z,56.86
2019-06-10T16:52:44.992Z,56.76
2019-06-10T16:58:53.939Z,56.14
2019-06-10T17:01:46.063Z,58.60
2019-06-10T17:04:27.735Z,59.50
2019-06-10T17:07:04.647Z,64.25
2019-06-10T17:10:52.722Z,61.69
2019-06-10T17:13:10.375Z,61.69
2019-06-10T17:15:49.717Z,62.37
2019-06-10T17:18:30.151Z,62.37
2019-06-10T17:21:17.097Z,62.23
2019-06-10T17:23:52.546Z,62.46
2019-06-10T17:26:34.453Z,60.79
2019-06-10T17:29:04.066Z,60.79
2019-06-10T17:32:08.405Z,62.48
2019-06-10T17:34:57.400Z,62.77
2019-06-10T17:37:26.917Z,62.77
2019-06-10T17:40:14.091Z,62.96
2019-06-10T17:42:53.235Z,63.49
2019-06-10T17:45:32.519Z,63.46
2019-06-10T17:48:03.678Z,63.46
2019-06-10T17:50:35.199Z,63.77
2019-06-10T17:53:06.760Z,63.52
2019-06-10T17:55:36.541Z,63.60
2019-06-10T17:58:07.164Z,64.26
2019-06-10T18:00:37.192Z,64.82
2019-06-10T18:03:09.376Z,64.78
2019-06-10T18:05:42.390Z,65.11
2019-06-10T18:08:13.119Z,65.11
2019-06-10T18:10:45.994Z,65.30
2019-06-10T18:13:19.301Z,65.85
2019-06-10T18:15:53.437Z,66.46
2019-06-10T18:18:26.793Z,66.10
2019-06-10T18:20:58.690Z,66.10
2019-06-10T18:23:30.878Z,66.46
2019-06-10T18:26:03.270Z,65.41
2019-06-10T18:28:45.336Z,64.68
2019-06-10T18:31:05.639Z,64.55
2019-06-10T18:33:37.953Z,64.55
2019-06-10T18:36:15.451Z,64.70
2019-06-10T18:38:46.906Z,64.21
2019-06-10T18:41:19.331Z,64.19
2019-06-10T18:43:53.263Z,64.48
2019-06-10T18:46:27.911Z,64.48
2019-06-10T18:49:02.767Z,64.48
2019-06-10T18:51:35.582Z,64.48
2019-06-10T18:54:06.297Z,64.05
2019-06-10T18:56:37.362Z,64.25
2019-06-10T18:59:19.713Z,64.21
2019-06-10T19:01:48.037Z,63.96
2019-06-10T19:04:22.380Z,63.93
2019-06-10T19:06:52.895Z,63.90
2019-06-10T19:09:23.253Z,63.90
2019-06-10T19:11:54.187Z,64.84
2019-06-10T19:14:35.562Z,64.84
2019-06-10T19:17:12.431Z,64.99
2019-06-10T19:19:44.915Z,65.05
2019-06-10T19:22:15.555Z,66.97
2019-06-10T19:24:45.531Z,66.97
2019-06-10T19:27:18.488Z,66.96
2019-06-10T19:29:54.606Z,66.84
2019-06-10T19:32:27.522Z,67.45
2019-06-10T19:35:13.067Z,68.16
2019-06-10T19:37:44.553Z,68.01
2019-06-10T19:40:16.242Z,68.01
2019-06-10T19:42:49.505Z,68.59
2019-06-10T19:45:27.275Z,68.46
2019-06-10T19:47:59.026Z,69.09
2019-06-10T19:50:48.155Z,68.49
2019-06-10T19:53:17.122Z,68.94
2019-06-10T19:55:47.348Z,68.94
2019-06-10T19:58:17.962Z,69.25
2019-06-10T20:00:54.104Z,69.25
2019-06-10T20:03:22.435Z,69.86
2019-06-10T20:05:53.155Z,70.20
2019-06-10T20:08:23.353Z,70.35
2019-06-10T20:10:55.934Z,70.43
2019-06-10T20:13:26.515Z,69.36
2019-06-10T20:15:56.812Z,69.28
2019-06-10T20:18:28.732Z,69.00
2019-06-10T20:21:02.686Z,69.25
2019-06-10T20:23:35.481Z,69.25
2019-06-10T20:26:06.901Z,69.57
2019-06-10T20:28:38.579Z,69.08
2019-06-10T20:31:12.762Z,69.89
2019-06-10T20:33:43.801Z,69.79
2019-06-10T20:36:22.497Z,70.14
2019-06-10T20:38:53.470Z,70.14
2019-06-10T20:41:25.404Z,70.35
2019-06-10T20:43:56.630Z,70.19
2019-06-10T20:46:26.796Z,70.19
2019-06-10T20:48:58.061Z,70.18
2019-06-10T20:51:28.373Z,70.48
2019-06-10T20:53:58.402Z,71.66
2019-06-10T20:56:29.785Z,72.26
2019-06-10T20:59:02.795Z,72.04
2019-06-10T21:01:33.405Z,72.04
2019-06-10T21:04:03.988Z,72.40
2019-06-10T21:06:36.153Z,72.29
2019-06-10T21:09:13.528Z,72.36
2019-06-10T21:11:48.260Z,72.82
2019-06-10T21:14:17.525Z,72.82
2019-06-10T21:16:48.360Z,72.31
2019-06-10T21:19:18.950Z,72.31
2019-06-10T21:21:53.767Z,72.91
2019-06-10T21:24:23.148Z,72.91
2019-06-10T21:26:54.693Z,73.81
2019-06-10T21:29:24.675Z,73.81
2019-06-10T21:31:54.989Z,75.10
2019-06-10T21:34:25.914Z,75.70
2019-06-10T21:36:55.833Z,76.67
2019-06-10T21:39:25.780Z,76.67
2019-06-10T21:41:56.427Z,76.64
2019-06-10T21:44:26.301Z,75.30
2019-06-10T21:46:56.343Z,76.51
2019-06-10T21:49:26.399Z,77.34
2019-06-10T21:51:57.237Z,77.55
2019-06-10T21:54:27.148Z,77.89
2019-06-10T21:56:58.015Z,77.89
2019-06-10T21:59:27.802Z,77.69
2019-06-10T22:01:57.876Z,76.99
2019-06-10T22:04:27.585Z,77.04
2019-06-10T22:06:58.990Z,76.76
2019-06-10T22:09:28.903Z,76.94
2019-06-10T22:12:00.080Z,77.03
2019-06-10T22:14:32.848Z,77.03
2019-06-10T22:17:03.049Z,78.05
2019-06-10T22:19:32.899Z,77.56
2019-06-10T22:22:03.494Z,77.56
2019-06-10T22:24:33.188Z,77.93
2019-06-10T22:27:05.888Z,77.23
2019-06-10T22:29:35.884Z,76.89
2019-06-10T22:32:05.699Z,76.89
2019-06-10T22:34:35.388Z,77.15
2019-06-10T22:37:04.926Z,76.37
2019-06-10T22:39:35.020Z,76.49
2019-06-10T22:42:05.924Z,76.28
2019-06-10T22:44:35.885Z,77.10
2019-06-10T22:47:08.529Z,77.10
2019-06-10T22:49:43.187Z,77.96
2019-06-10T22:52:13.354Z,77.85
2019-06-10T22:54:43.223Z,78.49
2019-06-10T22:57:13.346Z,78.49
2019-06-10T22:59:43.262Z,78.37
2019-06-10T23:02:13.300Z,78.24
2019-06-10T23:04:43.568Z,78.24
2019-06-10T23:07:13.393Z,78.47
2019-06-10T23:09:43.240Z,77.97
2019-06-10T23:12:13.069Z,77.68
2019-06-10T23:14:43.379Z,77.68
2019-06-10T23:17:14.216Z,77.79
2019-06-10T23:19:44.126Z,78.01
2019-06-10T23:22:14.033Z,77.87
2019-06-10T23:24:43.894Z,77.87
2019-06-10T23:27:13.704Z,77.65
2019-06-10T23:29:45.302Z,77.97
2019-06-10T23:32:15.045Z,77.97
2019-06-10T23:34:45.047Z,78.11
2019-06-10T23:37:14.688Z,78.32
2019-06-10T23:39:46.026Z,78.01
2019-06-10T23:42:16.071Z,77.82
2019-06-10T23:44:45.858Z,78.19
2019-06-10T23:47:15.705Z,77.52
2019-06-10T23:49:45.933Z,77.83
2019-06-10T23:52:15.782Z,78.01
2019-06-10T23:54:45.680Z,78.01
2019-06-10T23:57:15.534Z,78.10
2019-06-10T23:59:45.544Z,77.75
